createdAt,value
2023-08-08T00:00:54.123Z,12.76
2023-08-08T00:03:26.530Z,12.68
2023-08-08T00:05:56.448Z,12.61
2023-08-08T00:08:26.295Z,12.57
2023-08-08T00:10:56.189Z,12.56
2023-08-08T00:13:26.397Z,12.56
2023-08-08T00:15:56.310Z,12.58
2023-08-08T00:18:28.691Z,12.61
2023-08-08T00:20:58.423Z,12.65
2023-08-08T00:23:28.173Z,12.72
2023-08-08T00:25:57.919Z,12.76
2023-08-08T00:28:27.725Z,12.79
2023-08-08T00:30:57.495Z,12.77
2023-08-08T00:33:30.080Z,12.72
2023-08-08T00:36:00.026Z,12.63
2023-08-08T00:38:30.427Z,12.53
2023-08-08T00:41:00.218Z,12.44
2023-08-08T00:43:29.996Z,12.36
2023-08-08T00:46:00.029Z,12.27
2023-08-08T00:48:32.394Z,12.17
2023-08-08T00:51:03.537Z,12.08
2023-08-08T00:53:34.050Z,11.99
2023-08-08T00:56:03.967Z,11.93
2023-08-08T00:58:33.760Z,11.82
2023-08-08T01:01:04.512Z,11.74
2023-08-08T01:03:36.894Z,11.66
2023-08-08T01:06:12.693Z,11.60
2023-08-08T01:08:47.270Z,11.54
2023-08-08T01:11:18.022Z,11.51
2023-08-08T01:13:48.253Z,11.47
2023-08-08T01:16:19.962Z,11.44
2023-08-08T01:18:53.283Z,11.39
2023-08-08T01:21:23.071Z,11.36
2023-08-08T01:23:57.957Z,11.34
2023-08-08T01:26:30.679Z,11.33
2023-08-08T01:29:00.666Z,11.35
2023-08-08T01:31:32.042Z,11.35
2023-08-08T01:34:01.868Z,11.32
2023-08-08T01:36:36.348Z,11.30
2023-08-08T01:39:06.957Z,11.28
2023-08-08T01:41:41.913Z,11.26
2023-08-08T01:44:12.441Z,11.26
2023-08-08T01:46:42.682Z,11.23
2023-08-08T01:49:12.475Z,11.22
2023-08-08T01:51:42.391Z,11.19
2023-08-08T01:54:12.214Z,11.16
2023-08-08T01:56:44.560Z,11.18
2023-08-08T01:59:16.015Z,11.16
2023-08-08T02:01:46.091Z,11.16
2023-08-08T02:04:15.992Z,11.11
2023-08-08T02:06:45.982Z,11.06
2023-08-08T02:09:16.263Z,11.01
2023-08-08T02:11:48.789Z,10.98
2023-08-08T02:14:18.614Z,10.97
2023-08-08T02:16:48.400Z,11.01
2023-08-08T02:19:18.680Z,11.06
2023-08-08T02:21:48.635Z,11.09
2023-08-08T02:24:21.433Z,11.16
2023-08-08T02:26:53.788Z,11.20
2023-08-08T02:29:23.833Z,11.24
2023-08-08T02:31:53.658Z,11.26
2023-08-08T02:34:23.436Z,11.27
2023-08-08T02:36:53.550Z,11.25
2023-08-08T02:39:23.324Z,11.21
2023-08-08T02:41:55.812Z,11.18
2023-08-08T02:44:27.014Z,11.15
2023-08-08T02:46:57.226Z,11.14
2023-08-08T02:49:27.168Z,11.18
2023-08-08T02:51:57.455Z,11.22
2023-08-08T02:54:30.224Z,11.27
2023-08-08T02:57:02.728Z,11.32
2023-08-08T02:59:32.993Z,11.37
2023-08-08T03:02:06.383Z,11.40
2023-08-08T03:04:38.249Z,11.40
2023-08-08T03:07:10.150Z,11.37
2023-08-08T03:09:41.179Z,11.38
2023-08-08T03:12:16.037Z,11.40
2023-08-08T03:14:46.380Z,11.39
2023-08-08T03:17:17.553Z,11.42
2023-08-08T03:19:47.997Z,11.44
2023-08-08T03:22:18.666Z,11.45
2023-08-08T03:24:48.988Z,11.44
2023-08-08T03:27:21.373Z,11.48
2023-08-08T03:29:55.171Z,11.54
2023-08-08T03:32:25.997Z,11.63
2023-08-08T03:34:55.967Z,11.73
2023-08-08T03:37:25.929Z,11.78
2023-08-08T03:39:55.853Z,11.84
2023-08-08T03:42:28.201Z,11.90
2023-08-08T03:44:58.047Z,11.94
2023-08-08T03:47:28.090Z,12.01
2023-08-08T03:49:59.985Z,12.09
2023-08-08T03:52:30.510Z,12.16
2023-08-08T03:55:01.442Z,12.24
2023-08-08T03:57:34.060Z,12.30
2023-08-08T04:00:03.938Z,12.40
2023-08-08T04:02:43.282Z,12.48
2023-08-08T04:05:13.517Z,12.54
2023-08-08T04:07:43.314Z,12.61
2023-08-08T04:10:14.478Z,12.65
2023-08-08T04:12:46.830Z,12.72
2023-08-08T04:15:16.635Z,12.74
2023-08-08T04:17:46.531Z,12.77
2023-08-08T04:20:17.064Z,12.80
2023-08-08T04:22:46.840Z,12.82
2023-08-08T04:25:16.680Z,12.84
2023-08-08T04:27:49.209Z,12.86
2023-08-08T04:30:19.121Z,12.88
2023-08-08T04:32:49.225Z,12.92
2023-08-08T04:35:19.185Z,12.94
2023-08-08T04:37:49.204Z,12.97
2023-08-08T04:40:19.190Z,12.99
2023-08-08T04:42:51.590Z,13.01
2023-08-08T04:45:22.271Z,13.03
2023-08-08T04:47:52.161Z,13.04
2023-08-08T04:50:22.032Z,13.06
2023-08-08T04:52:51.802Z,13.08
2023-08-08T04:55:21.786Z,13.10
2023-08-08T04:57:54.199Z,13.11
2023-08-08T05:00:24.023Z,13.12
2023-08-08T05:02:53.867Z,13.14
2023-08-08T05:05:23.668Z,13.17
2023-08-08T05:07:53.419Z,13.18
2023-08-08T05:10:24.153Z,13.21
2023-08-08T05:12:56.523Z,13.26
2023-08-08T05:15:26.279Z,13.29
2023-08-08T05:17:56.476Z,13.33
2023-08-08T05:20:26.243Z,13.36
2023-08-08T05:22:56.022Z,13.38
2023-08-08T05:25:26.214Z,13.41
2023-08-08T05:27:58.646Z,13.43
2023-08-08T05:30:28.519Z,13.45
2023-08-08T05:32:58.411Z,13.49
2023-08-08T05:35:28.305Z,13.53
2023-08-08T05:37:58.049Z,13.58
2023-08-08T05:40:27.826Z,13.63
2023-08-08T05:43:00.192Z,13.64
2023-08-08T05:45:29.960Z,13.64
2023-08-08T05:48:01.651Z,13.61
2023-08-08T05:50:31.590Z,13.62
2023-08-08T05:53:01.482Z,13.64
2023-08-08T05:55:31.244Z,13.66
2023-08-08T05:58:03.684Z,13.69
2023-08-08T06:00:34.200Z,13.73
2023-08-08T06:03:04.336Z,13.74
2023-08-08T06:05:34.438Z,13.75
2023-08-08T06:08:05.421Z,13.76
2023-08-08T06:10:35.955Z,13.76
2023-08-08T06:13:08.652Z,13.79
2023-08-08T06:15:38.561Z,13.81
2023-08-08T06:18:09.055Z,13.83
2023-08-08T06:20:38.995Z,13.84
2023-08-08T06:23:08.789Z,13.87
2023-08-08T06:25:39.900Z,13.90
2023-08-08T06:28:12.777Z,13.94
2023-08-08T06:30:42.690Z,13.98
2023-08-08T06:33:12.518Z,14.00
2023-08-08T06:35:43.288Z,14.07
2023-08-08T06:38:13.179Z,14.14
2023-08-08T06:40:42.924Z,14.18
2023-08-08T06:43:15.413Z,14.22
2023-08-08T06:45:45.241Z,14.25
2023-08-08T06:48:15.102Z,14.27
2023-08-08T06:50:44.877Z,14.29
2023-08-08T06:53:15.060Z,14.31
2023-08-08T06:55:44.831Z,14.33
2023-08-08T06:58:17.269Z,14.39
2023-08-08T07:00:47.126Z,14.47
2023-08-08T07:03:17.043Z,14.53
2023-08-08T07:05:47.149Z,14.56
2023-08-08T07:08:16.971Z,14.62
2023-08-08T07:10:46.811Z,14.68
2023-08-08T07:13:19.322Z,14.73
2023-08-08T07:15:49.239Z,14.82
2023-08-08T07:18:19.005Z,14.90
2023-08-08T07:20:48.917Z,14.97
2023-08-08T07:23:18.713Z,15.11
2023-08-08T07:25:51.435Z,15.25
2023-08-08T07:28:24.061Z,15.37
2023-08-08T07:30:53.853Z,15.48
2023-08-08T07:33:23.628Z,15.51
2023-08-08T07:35:53.418Z,15.51
2023-08-08T07:38:23.206Z,15.52
2023-08-08T07:40:53.307Z,15.54
2023-08-08T07:43:25.669Z,15.56
2023-08-08T07:45:55.454Z,15.56
2023-08-08T07:48:25.220Z,15.56
2023-08-08T07:50:55.110Z,15.59
2023-08-08T07:53:24.857Z,15.72
2023-08-08T07:55:54.691Z,15.94
2023-08-08T07:58:28.415Z,16.07
2023-08-08T08:00:58.513Z,16.17
2023-08-08T08:03:28.537Z,16.29
2023-08-08T08:05:58.428Z,16.50
2023-08-08T08:08:28.501Z,16.56
2023-08-08T08:10:58.349Z,16.53
2023-08-08T08:13:30.735Z,16.45
2023-08-08T08:16:00.666Z,16.32
2023-08-08T08:18:30.435Z,16.13
2023-08-08T08:21:00.286Z,15.97
2023-08-08T08:23:30.168Z,15.88
2023-08-08T08:25:59.920Z,15.92
2023-08-08T08:28:32.372Z,16.03
2023-08-08T08:31:08.168Z,16.12
2023-08-08T08:33:37.936Z,16.15
2023-08-08T08:36:08.103Z,16.27
2023-08-08T08:38:37.891Z,16.47
2023-08-08T08:41:07.798Z,16.89
2023-08-08T08:43:40.195Z,17.89
2023-08-08T08:46:10.627Z,18.74
2023-08-08T08:48:40.701Z,19.26
2023-08-08T08:51:10.851Z,19.39
2023-08-08T08:53:47.601Z,19.19
2023-08-08T08:56:18.088Z,18.90
2023-08-08T08:58:50.486Z,18.59
2023-08-08T09:01:21.564Z,18.33
2023-08-08T09:03:51.548Z,18.09
2023-08-08T09:06:22.133Z,18.00
2023-08-08T09:08:55.304Z,17.97
2023-08-08T09:11:27.497Z,17.96
2023-08-08T09:14:01.064Z,17.91
2023-08-08T09:16:30.954Z,17.74
2023-08-08T09:19:02.156Z,17.57
2023-08-08T09:21:31.958Z,17.50
2023-08-08T09:24:02.069Z,17.56
2023-08-08T09:26:32.329Z,17.73
2023-08-08T09:29:05.137Z,17.91
2023-08-08T09:31:34.968Z,18.05
2023-08-08T09:34:07.304Z,18.11
2023-08-08T09:36:38.849Z,18.08
2023-08-08T09:39:09.259Z,18.06
2023-08-08T09:41:39.081Z,18.04
2023-08-08T09:44:12.366Z,18.03
2023-08-08T09:46:42.871Z,17.96
2023-08-08T09:49:13.734Z,17.89
2023-08-08T09:51:43.977Z,17.83
2023-08-08T09:54:14.379Z,17.82
2023-08-08T09:56:44.236Z,17.81
2023-08-08T09:59:17.203Z,17.87
2023-08-08T10:01:47.383Z,18.05
2023-08-08T10:04:17.405Z,18.63
2023-08-08T10:06:47.249Z,19.56
2023-08-08T10:09:17.660Z,20.17
2023-08-08T10:11:47.900Z,20.50
2023-08-08T10:14:20.840Z,20.74
2023-08-08T10:16:51.776Z,20.76
2023-08-08T10:19:26.057Z,20.73
2023-08-08T10:22:01.307Z,20.61
2023-08-08T10:24:37.176Z,20.51
2023-08-08T10:27:08.177Z,20.28
2023-08-08T10:29:42.474Z,19.96
2023-08-08T10:32:12.343Z,19.61
2023-08-08T10:34:45.177Z,19.19
2023-08-08T10:37:16.789Z,18.77
2023-08-08T10:39:58.177Z,18.34
2023-08-08T10:42:29.440Z,18.00
2023-08-08T10:45:03.712Z,17.77
2023-08-08T10:47:35.752Z,17.52
2023-08-08T10:50:11.107Z,17.41
2023-08-08T10:52:43.308Z,17.40
2023-08-08T10:55:22.490Z,17.45
2023-08-08T10:57:59.813Z,17.55
2023-08-08T11:00:33.968Z,17.67
2023-08-08T11:03:05.915Z,17.72
2023-08-08T11:05:37.204Z,17.71
2023-08-08T11:08:10.441Z,17.81
2023-08-08T11:10:40.742Z,18.13
2023-08-08T11:13:11.610Z,18.63
2023-08-08T11:15:44.045Z,19.14
2023-08-08T11:18:14.305Z,19.52
2023-08-08T11:20:45.535Z,19.77
2023-08-08T11:23:15.450Z,19.91
2023-08-08T11:25:46.855Z,19.94
2023-08-08T11:28:17.213Z,19.95
2023-08-08T11:30:50.027Z,19.97
2023-08-08T11:33:20.073Z,20.05
2023-08-08T11:35:50.823Z,20.22
2023-08-08T11:38:21.644Z,20.50
2023-08-08T11:40:53.600Z,20.57
2023-08-08T11:43:24.014Z,20.42
2023-08-08T11:45:56.768Z,20.12
2023-08-08T11:48:26.884Z,19.77
2023-08-08T11:50:56.968Z,19.44
2023-08-08T11:53:27.373Z,19.19
2023-08-08T11:55:58.557Z,18.99
2023-08-08T11:58:28.434Z,18.84
2023-08-08T12:01:01.424Z,18.68
2023-08-08T12:03:31.293Z,18.52
2023-08-08T12:06:02.246Z,18.44
2023-08-08T12:08:34.465Z,18.38
2023-08-08T12:11:06.594Z,18.31
2023-08-08T12:13:37.954Z,18.18
2023-08-08T12:16:16.904Z,17.98
2023-08-08T12:18:47.978Z,17.71
2023-08-08T12:21:17.840Z,17.42
2023-08-08T12:23:47.571Z,17.14
2023-08-08T12:26:17.350Z,16.89
2023-08-08T12:28:47.098Z,16.72
2023-08-08T12:31:19.485Z,16.57
2023-08-08T12:33:50.151Z,16.46
2023-08-08T12:36:20.027Z,16.36
2023-08-08T12:38:50.376Z,16.13
2023-08-08T12:41:20.267Z,15.85
2023-08-08T12:43:51.147Z,15.69
2023-08-08T12:46:23.675Z,15.60
2023-08-08T12:48:53.872Z,15.56
2023-08-08T12:51:23.740Z,15.56
2023-08-08T12:53:54.136Z,15.55
2023-08-08T12:56:23.900Z,15.59
2023-08-08T12:58:53.652Z,15.66
2023-08-08T13:01:26.404Z,15.82
2023-08-08T13:06:33.046Z,16.32
2023-08-08T13:09:02.810Z,16.54
2023-08-08T13:11:32.696Z,16.74
2023-08-08T13:14:02.482Z,16.96
2023-08-08T13:16:35.138Z,17.21
2023-08-08T13:19:05.331Z,17.43
2023-08-08T13:21:35.119Z,17.64
2023-08-08T13:24:05.432Z,17.83
2023-08-08T13:26:35.279Z,17.97
2023-08-08T13:29:04.999Z,18.10
2023-08-08T13:31:37.467Z,18.18
2023-08-08T13:34:07.647Z,18.32
2023-08-08T13:36:37.494Z,18.56
2023-08-08T13:39:08.209Z,18.81
2023-08-08T13:41:37.967Z,18.86
2023-08-08T13:44:08.341Z,18.84
2023-08-08T13:46:40.850Z,18.82
2023-08-08T13:49:10.671Z,18.84
2023-08-08T13:51:41.712Z,18.87
2023-08-08T13:54:13.602Z,18.86
2023-08-08T13:56:43.404Z,18.83
2023-08-08T13:59:13.236Z,18.77
2023-08-08T14:01:45.813Z,18.72
2023-08-08T14:04:15.609Z,18.69
2023-08-08T14:06:45.387Z,18.77
2023-08-08T14:09:17.168Z,18.97
2023-08-08T14:11:48.624Z,19.20
2023-08-08T14:14:18.399Z,19.37
2023-08-08T14:16:50.907Z,19.51
2023-08-08T14:19:20.892Z,19.69
2023-08-08T14:21:50.967Z,19.82
2023-08-08T14:24:21.245Z,19.83
2023-08-08T14:26:51.037Z,19.81
2023-08-08T14:29:20.783Z,19.85
2023-08-08T14:32:00.463Z,19.95
2023-08-08T14:34:34.918Z,20.06
2023-08-08T14:37:05.710Z,20.09
2023-08-08T14:39:35.551Z,20.09
2023-08-08T14:42:05.637Z,20.10
2023-08-08T14:44:35.688Z,20.12
2023-08-08T14:47:08.832Z,20.12
2023-08-08T14:49:38.787Z,20.06
2023-08-08T14:52:10.027Z,19.90
2023-08-08T14:54:39.818Z,19.76
2023-08-08T14:57:09.687Z,19.67
2023-08-08T14:59:39.424Z,19.67
2023-08-08T15:02:11.854Z,19.77
2023-08-08T15:04:41.713Z,19.97
2023-08-08T15:07:11.498Z,20.11
2023-08-08T15:09:41.349Z,20.18
2023-08-08T15:12:12.040Z,20.20
2023-08-08T15:14:41.771Z,20.22
2023-08-08T15:17:14.146Z,20.26
2023-08-08T15:19:43.987Z,20.24
2023-08-08T15:22:14.014Z,20.17
2023-08-08T15:24:44.272Z,20.09
2023-08-08T15:27:14.005Z,19.99
2023-08-08T15:29:43.722Z,19.89
2023-08-08T15:32:16.092Z,19.88
2023-08-08T15:34:45.820Z,19.94
2023-08-08T15:37:15.587Z,19.95
2023-08-08T15:39:45.347Z,19.93
2023-08-08T15:42:15.114Z,19.90
2023-08-08T15:44:44.872Z,19.89
2023-08-08T15:47:17.290Z,19.90
2023-08-08T15:49:47.093Z,19.89
2023-08-08T15:52:16.893Z,19.85
2023-08-08T15:54:46.666Z,19.81
2023-08-08T15:57:16.432Z,19.77
2023-08-08T15:59:46.212Z,19.79
2023-08-08T16:02:19.262Z,19.82
2023-08-08T16:04:50.104Z,19.86
2023-08-08T16:07:20.707Z,19.87
2023-08-08T16:09:50.597Z,19.88
2023-08-08T16:12:20.422Z,19.86
2023-08-08T16:14:50.154Z,19.81
2023-08-08T16:17:22.549Z,19.71
2023-08-08T16:19:52.333Z,19.60
2023-08-08T16:22:22.094Z,19.53
2023-08-08T16:24:51.845Z,19.44
2023-08-08T16:27:21.620Z,19.39
2023-08-08T16:29:51.538Z,19.40
2023-08-08T16:32:23.880Z,19.49
2023-08-08T16:34:53.682Z,19.56
2023-08-08T16:37:23.628Z,19.66
2023-08-08T16:39:53.633Z,19.72
2023-08-08T16:42:24.005Z,19.74
2023-08-08T16:44:53.824Z,19.72
2023-08-08T16:47:26.172Z,19.72
2023-08-08T16:49:55.982Z,19.71
2023-08-08T16:52:25.967Z,19.69
2023-08-08T16:54:55.788Z,19.67
2023-08-08T16:57:25.555Z,19.62
2023-08-08T16:59:55.543Z,19.54
2023-08-08T17:02:28.086Z,19.43
2023-08-08T17:04:57.852Z,19.33
2023-08-08T17:07:30.465Z,19.28
2023-08-08T17:10:00.406Z,19.20
2023-08-08T17:12:30.410Z,19.11
2023-08-08T17:15:00.193Z,19.02
2023-08-08T17:17:32.643Z,18.92
2023-08-08T17:20:05.419Z,18.81
2023-08-08T17:22:35.618Z,18.65
2023-08-08T17:25:05.428Z,18.49
2023-08-08T17:27:36.824Z,18.35
2023-08-08T17:30:10.006Z,18.22
2023-08-08T17:32:42.943Z,18.12
2023-08-08T17:35:13.430Z,18.01
2023-08-08T17:37:43.257Z,17.91
2023-08-08T17:40:13.753Z,17.86
2023-08-08T17:42:43.653Z,17.83
2023-08-08T17:45:16.539Z,17.80
2023-08-08T17:47:48.938Z,17.79
2023-08-08T17:50:18.944Z,17.75
2023-08-08T17:52:49.047Z,17.73
2023-08-08T17:55:19.595Z,17.70
2023-08-08T17:57:51.271Z,17.66
2023-08-08T18:00:22.918Z,17.63
2023-08-08T18:02:56.935Z,17.60
2023-08-08T18:05:27.065Z,17.58
2023-08-08T18:07:57.044Z,17.56
2023-08-08T18:10:27.070Z,17.55
2023-08-08T18:12:57.029Z,17.52
2023-08-08T18:15:26.820Z,17.49
2023-08-08T18:17:59.685Z,17.44
2023-08-08T18:20:29.570Z,17.39
2023-08-08T18:22:59.508Z,17.32
2023-08-08T18:25:29.785Z,17.25
2023-08-08T18:27:59.597Z,17.18
2023-08-08T18:30:29.658Z,17.12
2023-08-08T18:33:02.128Z,17.06
2023-08-08T18:35:32.142Z,17.00
2023-08-08T18:38:02.084Z,16.95
2023-08-08T18:40:31.951Z,16.91
2023-08-08T18:43:02.129Z,16.87
2023-08-08T18:45:32.003Z,16.84
2023-08-08T18:48:04.503Z,16.83
2023-08-08T18:50:34.367Z,16.78
2023-08-08T18:53:04.607Z,16.78
2023-08-08T18:55:34.426Z,16.74
2023-08-08T18:58:04.457Z,16.72
2023-08-08T19:00:34.277Z,16.69
2023-08-08T19:03:07.427Z,16.66
2023-08-08T19:05:37.333Z,16.63
2023-08-08T19:08:07.749Z,16.57
2023-08-08T19:10:37.727Z,16.54
2023-08-08T19:13:07.954Z,16.50
2023-08-08T19:15:37.773Z,16.45
2023-08-08T19:18:10.407Z,16.38
2023-08-08T19:20:40.381Z,16.33
2023-08-08T19:23:11.409Z,16.28
2023-08-08T19:25:41.389Z,16.24
2023-08-08T19:28:11.739Z,16.19
2023-08-08T19:30:41.736Z,16.15
2023-08-08T19:33:16.811Z,16.08
2023-08-08T19:35:46.638Z,16.03
2023-08-08T19:38:16.455Z,16.01
2023-08-08T19:40:46.323Z,15.98
2023-08-08T19:43:16.792Z,15.94
2023-08-08T19:45:49.276Z,15.91
2023-08-08T19:48:21.701Z,15.88
2023-08-08T19:50:51.729Z,15.86
2023-08-08T19:53:22.057Z,15.83
2023-08-08T19:55:54.046Z,15.81
2023-08-08T19:58:26.282Z,15.71
2023-08-08T20:00:56.807Z,15.59
2023-08-08T20:03:30.883Z,15.45
2023-08-08T20:06:01.021Z,15.27
2023-08-08T20:08:32.241Z,15.10
2023-08-08T20:11:02.128Z,14.95
2023-08-08T20:13:31.953Z,14.81
2023-08-08T20:16:01.800Z,14.69
2023-08-08T20:18:34.568Z,14.59
2023-08-08T20:21:05.485Z,14.52
2023-08-08T20:23:35.360Z,14.46
2023-08-08T20:26:05.589Z,14.41
2023-08-08T20:28:35.418Z,14.38
2023-08-08T20:31:07.800Z,14.35
2023-08-08T20:33:46.193Z,14.31
2023-08-08T20:36:16.914Z,14.30
2023-08-08T20:38:47.646Z,14.29
2023-08-08T20:41:17.492Z,14.28
2023-08-08T20:43:48.184Z,14.28
2023-08-08T20:46:18.095Z,14.28
2023-08-08T20:48:52.121Z,14.26
2023-08-08T20:51:22.326Z,14.26
2023-08-08T20:53:52.274Z,14.27
2023-08-08T20:56:22.111Z,14.26
2023-08-08T20:58:53.582Z,14.25
2023-08-08T21:01:23.477Z,14.23
2023-08-08T21:03:56.017Z,14.22
2023-08-08T21:06:25.908Z,14.19
2023-08-08T21:08:55.832Z,14.18
2023-08-08T21:11:25.615Z,14.16
2023-08-08T21:13:55.421Z,14.15
2023-08-08T21:16:25.343Z,14.15
2023-08-08T21:18:57.996Z,14.16
2023-08-08T21:21:28.022Z,14.17
2023-08-08T21:23:58.065Z,14.20
2023-08-08T21:26:38.402Z,14.21
2023-08-08T21:29:09.903Z,14.24
2023-08-08T21:31:39.849Z,14.25
2023-08-08T21:34:12.513Z,14.27
2023-08-08T21:36:43.118Z,14.29
2023-08-08T21:39:12.906Z,14.31
2023-08-08T21:41:42.710Z,14.32
2023-08-08T21:44:12.693Z,14.34
2023-08-08T21:46:42.483Z,14.35
2023-08-08T21:49:15.132Z,14.35
2023-08-08T21:51:45.233Z,14.34
2023-08-08T21:54:15.262Z,14.34
2023-08-08T21:56:46.674Z,14.32
2023-08-08T21:59:16.616Z,14.33
2023-08-08T22:01:46.680Z,14.35
2023-08-08T22:04:19.511Z,14.36
2023-08-08T22:06:49.587Z,14.37
2023-08-08T22:09:19.673Z,14.38
2023-08-08T22:11:49.489Z,14.38
2023-08-08T22:14:19.788Z,14.41
2023-08-08T22:16:49.645Z,14.41
2023-08-08T22:19:22.777Z,14.43
2023-08-08T22:21:52.815Z,14.44
2023-08-08T22:24:22.708Z,14.45
2023-08-08T22:26:52.543Z,14.43
2023-08-08T22:29:22.642Z,14.43
2023-08-08T22:31:54.971Z,14.42
2023-08-08T22:34:27.679Z,14.42
2023-08-08T22:36:57.536Z,14.44
2023-08-08T22:39:27.382Z,14.43
2023-08-08T22:41:57.197Z,14.42
2023-08-08T22:44:27.006Z,14.41
2023-08-08T22:46:56.938Z,14.41
2023-08-08T22:49:29.523Z,14.39
2023-08-08T22:51:59.533Z,14.37
2023-08-08T22:54:29.431Z,14.32
2023-08-08T22:56:59.485Z,14.29
2023-08-08T22:59:29.659Z,14.26
2023-08-08T23:02:01.356Z,14.26
2023-08-08T23:04:33.849Z,14.27
2023-08-08T23:07:03.864Z,14.29
2023-08-08T23:09:34.181Z,14.31
2023-08-08T23:12:04.347Z,14.34
2023-08-08T23:14:34.228Z,14.37
2023-08-08T23:17:04.371Z,14.38
2023-08-08T23:19:36.877Z,14.40
2023-08-08T23:22:06.865Z,14.39
2023-08-08T23:24:36.727Z,14.41
2023-08-08T23:27:06.797Z,14.42
2023-08-08T23:29:36.911Z,14.43
2023-08-08T23:32:07.553Z,14.44
2023-08-08T23:34:39.966Z,14.45
2023-08-08T23:37:19.794Z,14.46
2023-08-08T23:39:52.098Z,14.46
2023-08-08T23:42:21.965Z,14.44
2023-08-08T23:44:52.260Z,14.42
2023-08-08T23:47:23.061Z,14.37
2023-08-08T23:49:58.240Z,14.33
2023-08-08T23:52:28.497Z,14.31
2023-08-08T23:54:58.322Z,14.30
2023-08-08T23:57:28.331Z,14.29
2023-08-08T23:59:58.159Z,14.28
